Weather at Pima County Sheriff's Heliport [CLOSED]

Public forecast

Using degrees Fahrenheit for public forecast. Weather courtesy of forecast.io.

Closest aviation weather report (METAR) to Pima County Sheriff's Heliport

Closest report is Davis Monthan Air Force Base, 3.3 nm (6.1 km) E. Retrieved 2020/09/24 17:58 UTC (11 minutes ago):

KDMA 241758Z AUTO 00000KT 10SM CLR 33/05 A3000 RMK AO2 SLP111 T03330049 10333 20198 58005 FZRANO

Closest aviation forecast (TAF) to Pima County Sheriff's Heliport

Closest forecast is Davis Monthan Air Force Base, 3.3 nm (6.1 km) E. Retrieved 2020/09/24 14:15 UTC (4 hours ago):

TAF TAF KDMA 241405Z 2414/2520 VRB06KT 9999 FEW100 QNH2998INS BECMG 2419/2420 30009KT 9999 FEW100 QNH2988INS BECMG 2501/2502 VRB06KT 9999 SKC QNH2990INS BECMG 2519/2520 28009KT 9999 FEW100 QNH2995INS TX38/2422Z TN20/2511Z